Time;durP1;ratioP1;P1;durP2;ratioP2;P2;SDS_P1;SDS_P2;PMS_P1;PMS_P2;Temp;Humidity;BMP_temperature;BMP_pressure;BME280_temperature;BME280_humidity;BME280_pressure;Samples;Min_cycle;Max_cycle;Signal;HPM_P1;HPM_P2
2021/11/02 00:00:20;;;;;;;6.67;6.17;;;6.00;99.90;;;6.89;100.00;96621.19;5201689;28;20713;-64
2021/11/02 00:02:56;;;;;;;7.23;6.53;;;6.00;99.90;;;6.95;100.00;96612.22;5212181;28;20881;-59
2021/11/02 00:05:31;;;;;;;6.43;5.93;;;6.10;99.90;;;6.98;100.00;96616.56;5205130;28;20218;-58
2021/11/02 00:08:05;;;;;;;6.30;5.70;;;6.00;99.90;;;6.98;100.00;96606.41;5203562;28;20579;-60
2021/11/02 00:10:38;;;;;;;5.87;5.37;;;6.10;99.90;;;6.99;100.00;96613.25;5209758;28;20280;-60
2021/11/02 00:13:11;;;;;;;8.70;5.70;;;6.10;99.90;;;6.93;100.00;96608.72;5205617;28;20224;-61
2021/11/02 00:15:54;;;;;;;5.73;5.17;;;5.90;99.90;;;6.92;100.00;96608.63;5203460;28;20692;-62
2021/11/02 00:18:28;;;;;;;5.20;4.80;;;5.90;99.90;;;6.89;100.00;96611.03;5187496;28;20202;-62
2021/11/02 00:21:02;;;;;;;5.87;5.37;;;6.00;99.90;;;6.92;100.00;96611.19;5204065;28;20326;-58
2021/11/02 00:23:37;;;;;;;5.13;4.73;;;6.00;99.90;;;6.95;100.00;96616.41;5205594;28;20429;-58
2021/11/02 00:26:13;;;;;;;5.40;4.90;;;6.00;99.90;;;6.89;100.00;96616.97;5209277;28;20208;-62
2021/11/02 00:28:46;;;;;;;5.40;5.00;;;5.90;99.90;;;6.86;100.00;96609.19;5207624;28;20240;-62
2021/11/02 00:31:19;;;;;;;6.37;5.87;;;6.00;99.90;;;6.90;100.00;96612.78;5214870;28;20309;-62
2021/11/02 00:33:52;;;;;;;6.10;5.60;;;6.00;99.90;;;6.86;100.00;96613.41;5201333;28;20551;-61
2021/11/02 00:36:27;;;;;;;6.07;5.57;;;6.00;99.90;;;6.85;100.00;96604.06;5203504;28;20216;-62
2021/11/02 00:39:00;;;;;;;5.20;4.70;;;6.00;99.90;;;6.79;100.00;96608.84;5203187;28;20197;-62
2021/11/02 00:41:34;;;;;;;5.70;5.20;;;6.00;99.90;;;6.73;100.00;96612.78;5211196;28;20222;-60
2021/11/02 00:44:08;;;;;;;5.50;5.10;;;5.90;99.90;;;6.76;100.00;96607.00;5210204;28;20226;-61
2021/11/02 00:46:41;;;;;;;5.03;4.73;;;5.90;99.90;;;6.80;100.00;96610.56;5204570;28;20207;-62
2021/11/02 00:49:17;;;;;;;5.57;5.17;;;6.00;99.90;;;6.85;100.00;96606.59;5211489;28;20194;-63
2021/11/02 00:51:52;;;;;;;5.63;5.23;;;6.10;99.90;;;6.93;100.00;96610.41;5208988;28;20430;-64
2021/11/02 00:54:25;;;;;;;6.30;5.70;;;6.10;99.90;;;7.00;100.00;96597.19;5213760;28;20289;-64
2021/11/02 00:56:58;;;;;;;5.07;4.73;;;6.10;99.90;;;7.09;100.00;96595.13;5208662;28;20293;-62
2021/11/02 00:59:31;;;;;;;5.00;4.70;;;6.10;99.90;;;7.08;100.00;96590.84;5211219;28;20202;-63
2021/11/02 01:02:07;;;;;;;5.17;4.87;;;6.10;99.90;;;7.01;100.00;96588.81;5209501;28;20313;-60
2021/11/02 01:04:41;;;;;;;5.33;4.93;;;6.10;99.90;;;7.01;100.00;96591.34;5212958;28;20216;-64
2021/11/02 01:07:16;;;;;;;6.03;5.53;;;6.10;99.90;;;7.08;100.00;96588.31;5210578;28;20198;-62
2021/11/02 01:09:50;;;;;;;6.27;5.77;;;6.20;99.90;;;7.01;100.00;96596.44;5208956;28;20196;-63
2021/11/02 01:12:23;;;;;;;6.30;5.53;;;6.30;99.90;;;7.05;100.00;96593.22;5204839;28;20218;-61
2021/11/02 01:14:56;;;;;;;4.60;4.30;;;6.10;99.90;;;6.99;100.00;96591.25;5205001;28;20272;-60
2021/11/02 01:17:29;;;;;;;5.53;5.03;;;6.10;99.90;;;6.99;100.00;96592.94;5209781;28;20206;-59
2021/11/02 01:20:04;;;;;;;5.90;5.40;;;6.10;99.90;;;6.96;100.00;96585.16;5211025;28;20198;-57
2021/11/02 01:22:39;;;;;;;5.50;5.10;;;6.10;99.90;;;6.93;100.00;96588.41;5210176;28;20216;-59
2021/11/02 01:25:13;;;;;;;6.00;5.50;;;6.10;99.90;;;6.90;100.00;96590.81;5214004;28;20223;-58
2021/11/02 01:27:46;;;;;;;5.67;5.17;;;6.10;99.90;;;6.95;100.00;96591.00;5206450;28;20682;-59
2021/11/02 01:30:19;;;;;;;5.90;5.50;;;6.20;99.90;;;6.99;100.00;96592.94;5209935;28;20212;-58
2021/11/02 01:32:53;;;;;;;6.17;5.47;;;6.30;99.90;;;7.04;100.00;96588.97;5204254;28;20677;-63
2021/11/02 01:35:26;;;;;;;6.60;6.00;;;6.20;99.90;;;7.03;100.00;96587.19;5201212;28;20200;-64
2021/11/02 01:38:03;;;;;;;6.10;5.60;;;6.30;99.90;;;7.11;100.00;96580.81;5203426;28;20574;-63
2021/11/02 01:40:36;;;;;;;7.20;5.27;;;6.30;99.90;;;7.12;100.00;96577.47;5210005;28;20197;-57
2021/11/02 01:43:11;;;;;;;6.43;5.87;;;6.20;99.90;;;7.02;100.00;96580.38;5207053;28;20197;-61
2021/11/02 01:45:44;;;;;;;5.73;5.23;;;6.30;99.90;;;6.97;100.00;96574.19;5211013;28;20217;-62
2021/11/02 01:48:23;;;;;;;5.40;5.00;;;6.20;99.90;;;6.98;100.00;96574.28;5207429;28;20654;-61
2021/11/02 01:50:57;;;;;;;6.17;5.67;;;6.20;99.90;;;6.99;100.00;96570.94;5209944;28;20225;-62
2021/11/02 01:53:34;;;;;;;5.77;5.30;;;6.30;99.90;;;7.06;100.00;96572.09;5204539;28;20212;-60
2021/11/02 01:56:08;;;;;;;6.07;5.57;;;6.30;99.90;;;7.07;100.00;96578.03;5211804;28;20614;-61
2021/11/02 01:58:43;;;;;;;6.00;5.43;;;6.30;99.90;;;7.05;100.00;96569.50;5204400;28;20232;-60
2021/11/02 02:01:31;;;;;;;6.97;6.37;;;6.30;99.90;;;7.12;100.00;96571.53;5210769;28;20767;-60
2021/11/02 02:04:14;;;;;;;6.43;5.93;;;6.20;99.90;;;7.08;100.00;96575.59;5207099;28;20202;-62
2021/11/02 02:06:59;;;;;;;5.93;5.43;;;6.20;99.90;;;7.04;100.00;96566.09;5212015;28;20225;-60
2021/11/02 02:09:40;;;;;;;6.00;5.40;;;6.10;99.90;;;7.02;100.00;96570.22;5206599;28;20204;-62
2021/11/02 02:12:29;;;;;;;5.67;5.17;;;6.20;99.90;;;7.07;100.00;96563.69;5206273;28;20697;-58
2021/11/02 02:15:11;;;;;;;5.93;5.43;;;6.30;99.90;;;7.07;100.00;96561.16;5203809;28;20673;-58
2021/11/02 02:17:52;;;;;;;5.30;4.93;;;6.40;99.90;;;7.10;100.00;96563.84;5200492;28;20204;-62
2021/11/02 02:20:49;;;;;;;5.70;5.20;;;6.30;99.90;;;7.09;100.00;96556.13;5203453;28;20518;-56
2021/11/02 02:23:37;;;;;;;6.10;5.50;;;6.30;99.90;;;7.08;100.00;96554.41;5199487;28;20212;-64
2021/11/02 02:26:22;;;;;;;5.50;5.10;;;6.40;99.90;;;7.10;100.00;96558.78;5203604;28;20668;-59
2021/11/02 02:29:00;;;;;;;5.70;5.30;;;6.20;99.90;;;7.07;100.00;96539.94;5196876;28;20204;-59
2021/11/02 02:31:36;;;;;;;5.93;5.53;;;6.30;99.90;;;7.07;100.00;96543.38;5206651;28;20221;-57
2021/11/02 02:34:12;;;;;;;5.70;5.30;;;6.30;99.90;;;7.06;100.00;96544.16;5201177;28;20208;-56
2021/11/02 02:36:49;;;;;;;6.07;5.47;;;6.30;99.90;;;7.13;100.00;96548.75;5204708;28;20205;-63
2021/11/02 02:39:25;;;;;;;5.87;5.43;;;6.40;99.90;;;7.19;100.00;96543.97;5209141;28;20205;-64
2021/11/02 02:41:59;;;;;;;6.83;6.33;;;6.50;99.90;;;7.25;100.00;96542.53;5210161;28;20256;-63
2021/11/02 02:44:34;;;;;;;6.97;6.37;;;6.50;99.90;;;7.32;100.00;96535.25;5202913;28;20193;-56
2021/11/02 02:47:08;;;;;;;6.40;5.90;;;6.50;99.90;;;7.34;100.00;96558.22;5204423;28;20198;-59
2021/11/02 02:49:42;;;;;;;6.40;5.80;;;6.50;99.90;;;7.34;100.00;96543.81;5200146;28;20297;-63
2021/11/02 02:52:18;;;;;;;6.67;6.07;;;6.50;99.90;;;7.35;100.00;96544.69;5201918;28;20228;-59
2021/11/02 02:54:52;;;;;;;7.03;6.33;;;6.50;99.90;;;7.38;100.00;96549.91;5205694;28;20654;-55
2021/11/02 02:57:26;;;;;;;7.30;6.70;;;6.50;99.90;;;7.31;100.00;96552.97;5213723;28;20657;-60
2021/11/02 03:00:01;;;;;;;6.60;6.10;;;6.50;99.90;;;7.35;100.00;96553.19;5212159;28;20291;-61
2021/11/02 03:02:36;;;;;;;6.63;6.13;;;6.50;99.90;;;7.35;100.00;96559.94;5222071;22;20223;-59
2021/11/02 03:05:13;;;;;;;6.63;6.03;;;6.50;99.90;;;7.39;100.00;96557.63;5202494;28;20380;-58
2021/11/02 03:07:47;;;;;;;6.67;6.17;;;6.50;99.90;;;7.32;100.00;96564.88;5200897;28;20202;-58
2021/11/02 03:10:20;;;;;;;6.80;6.20;;;6.50;99.90;;;7.33;100.00;96553.94;5201587;28;20309;-58
2021/11/02 03:12:56;;;;;;;7.53;6.57;;;6.50;99.90;;;7.32;100.00;96549.63;5197338;28;20313;-58
2021/11/02 03:15:48;;;;;;;7.37;6.30;;;6.50;99.90;;;7.24;100.00;96551.81;5200206;28;20193;-59
2021/11/02 03:50:41;;;;;;;6.87;5.83;;;6.50;99.90;;;7.15;100.00;96537.00;5200562;28;20208;-61
2021/11/02 03:56:17;;;;;;;6.87;6.17;;;6.50;99.90;;;7.08;100.00;96539.16;5202823;28;20600;-59
2021/11/02 03:59:10;;;;;;;6.40;5.90;;;6.50;99.90;;;7.00;100.00;96541.31;5201704;28;20194;-59
2021/11/02 04:02:01;;;;;;;6.73;6.07;;;6.30;99.90;;;6.91;100.00;96541.75;5200414;28;20229;-59
2021/11/02 04:25:02;;;;;;;6.17;5.63;;;6.10;99.90;;;6.83;100.00;96549.78;5201744;28;20272;-59
2021/11/02 04:27:47;;;;;;;6.77;6.17;;;6.10;99.90;;;6.74;100.00;96558.66;5199536;28;20221;-60
2021/11/02 04:42:35;;;;;;;8.43;7.63;;;6.10;99.90;;;6.73;100.00;96567.09;5202030;28;20329;-59
2021/11/02 05:08:28;;;;;;;7.10;6.50;;;5.80;99.90;;;6.52;100.00;96560.91;5204009;28;20198;-61
2021/11/02 05:11:52;;;;;;;7.40;6.80;;;5.80;99.90;;;6.48;100.00;96567.50;5203606;28;20248;-60
2021/11/02 05:49:28;;;;;;;10.10;9.10;;;5.40;99.90;;;6.11;100.00;96566.38;5158997;28;20297;-61
2021/11/02 05:57:48;;;;;;;9.10;8.20;;;5.50;99.90;;;6.08;100.00;96564.53;5202990;28;20708;-59
2021/11/02 06:00:23;;;;;;;9.03;8.20;;;5.40;99.90;;;6.08;100.00;96564.53;5202953;28;20230;-59
2021/11/02 06:03:20;;;;;;;10.20;9.20;;;5.40;99.90;;;6.09;100.00;96558.66;5201248;28;20320;-59
2021/11/02 06:06:05;;;;;;;9.93;9.10;;;5.40;99.90;;;6.01;100.00;96570.97;5196904;28;20198;-59
2021/11/02 06:29:24;;;;;;;9.53;8.63;;;5.20;99.90;;;5.86;100.00;96550.66;5202498;28;20225;-59
2021/11/02 06:32:02;;;;;;;7.80;7.10;;;5.10;99.90;;;5.82;100.00;96558.06;5203250;28;20214;-60
2021/11/02 06:34:43;;;;;;;11.23;7.93;;;5.00;99.90;;;5.77;100.00;96564.53;5198198;28;20293;-59
2021/11/02 06:43:12;;;;;;;11.20;10.10;;;5.20;99.90;;;5.85;100.00;96560.75;5192049;28;20301;-59
2021/11/02 06:54:51;;;;;;;8.80;7.40;;;5.00;99.90;;;5.84;100.00;96575.09;5196153;28;20292;-60
2021/11/02 06:57:49;;;;;;;9.00;7.57;;;5.10;99.90;;;5.92;100.00;96579.69;5197616;28;20217;-60
2021/11/02 07:00:37;;;;;;;12.53;7.23;;;5.20;99.90;;;6.00;100.00;96581.00;5198961;28;20201;-58
2021/11/02 07:17:57;;;;;;;181.77;18.87;;;5.20;99.90;;;6.06;100.00;96594.88;5194300;28;20198;-60
2021/11/02 07:20:38;;;;;;;17.73;8.50;;;5.30;99.90;;;6.12;100.00;96594.34;5199092;28;20403;-62
2021/11/02 07:23:21;;;;;;;95.47;13.40;;;5.30;99.90;;;6.13;100.00;96598.66;5200907;28;20229;-60
2021/11/02 07:26:08;;;;;;;29.77;10.17;;;5.30;99.90;;;6.19;100.00;96600.63;5201670;28;20265;-60
2021/11/02 08:47:34;;;;;;;21.00;12.60;;;7.60;99.90;;;8.70;100.00;96573.75;5204232;28;20623;-60
2021/11/02 08:50:11;;;;;;;14.07;10.13;;;7.60;99.90;;;8.77;100.00;96569.00;5200480;28;20204;-62
2021/11/02 08:52:50;;;;;;;9.93;9.00;;;7.70;99.90;;;8.91;100.00;96567.06;5204154;28;20230;-60
2021/11/02 08:55:23;;;;;;;8.80;8.00;;;7.90;99.90;;;8.96;100.00;96569.81;5201770;28;20289;-61
2021/11/02 08:57:58;;;;;;;8.13;7.53;;;8.00;99.90;;;8.98;100.00;96569.03;5200663;28;20198;-60
2021/11/02 09:00:34;;;;;;;9.15;8.38;;;8.10;99.90;;;9.22;100.00;96564.09;5205057;28;20300;-61
2021/11/02 09:03:12;;;;;;;8.32;7.53;;;8.30;99.90;;;9.37;100.00;96566.41;5205970;28;20225;-62
2021/11/02 09:05:50;;;;;;;9.52;8.73;;;8.50;99.90;;;9.47;100.00;96565.09;5203724;28;20252;-62
2021/11/02 09:08:29;;;;;;;8.45;7.75;;;8.70;99.90;;;9.69;100.00;96579.56;5199177;28;20222;-62
2021/11/02 09:11:03;;;;;;;8.10;7.40;;;8.90;99.90;;;9.79;100.00;96568.94;5202146;28;20719;-62
2021/11/02 09:13:38;;;;;;;8.17;7.47;;;9.00;99.90;;;9.98;100.00;96567.94;5201189;28;20220;-62
2021/11/02 09:16:13;;;;;;;7.32;6.72;;;9.10;99.90;;;10.16;100.00;96555.03;5204820;28;20288;-63
2021/11/02 09:18:48;;;;;;;8.20;7.50;;;9.30;99.90;;;10.26;100.00;96562.19;5204175;28;20281;-62
2021/11/02 09:21:25;;;;;;;8.40;7.68;;;9.40;99.90;;;10.52;100.00;96555.50;5204955;28;20233;-62
2021/11/02 09:24:00;;;;;;;8.65;7.95;;;9.60;99.90;;;10.71;100.00;96551.94;5203989;28;20696;-62
2021/11/02 09:26:35;;;;;;;8.75;7.97;;;9.70;99.90;;;10.71;100.00;96544.28;5204996;28;20733;-62
2021/11/02 09:29:10;;;;;;;7.68;6.97;;;9.90;99.90;;;10.78;100.00;96545.34;5205387;28;20593;-63
2021/11/02 09:31:44;;;;;;;6.88;6.28;;;9.90;99.90;;;10.86;100.00;96550.72;5205247;28;20214;-62
2021/11/02 09:34:17;;;;;;;7.70;7.00;;;10.00;99.90;;;11.00;100.00;96550.38;5204760;28;20202;-63
2021/11/02 09:36:58;;;;;;;8.82;7.93;;;10.10;99.90;;;11.01;100.00;96556.34;5204771;28;20746;-62
2021/11/02 09:39:40;;;;;;;7.18;6.50;;;10.10;99.90;;;11.07;100.00;96564.22;5202067;28;20196;-62
2021/11/02 09:42:38;;;;;;;7.53;6.50;;;10.10;99.90;;;11.20;100.00;96557.88;5197817;28;20301;-60
2021/11/02 09:45:42;;;;;;;7.57;6.97;;;10.20;99.90;;;11.30;100.00;96553.91;5198785;28;20193;-61
2021/11/02 09:48:58;;;;;;;7.18;6.53;;;10.20;99.90;;;11.37;100.00;96561.84;5200426;28;20213;-64
2021/11/02 09:52:17;;;;;;;6.72;6.22;;;10.10;99.90;;;11.48;100.00;96557.94;5179454;28;20212;-63
2021/11/02 09:55:43;;;;;;;7.55;6.80;;;10.00;99.90;;;11.50;100.00;96561.44;5181888;28;20622;-64
2021/11/02 09:58:21;;;;;;;5.85;5.35;;;10.10;99.90;;;11.50;100.00;96563.09;5184459;28;20377;-63
2021/11/02 10:01:31;;;;;;;4.53;4.18;;;10.00;99.90;;;11.45;100.00;96569.78;5203788;28;20635;-60
2021/11/02 10:04:36;;;;;;;4.18;3.88;;;10.00;99.90;;;11.36;100.00;96572.00;5199430;28;20267;-58
2021/11/02 10:07:56;;;;;;;7.30;4.70;;;10.00;99.90;;;11.27;100.00;96573.47;5198269;28;20202;-63
2021/11/02 10:10:41;;;;;;;3.80;3.50;;;10.00;99.90;;;11.18;100.00;96579.94;5171418;28;20202;-60
2021/11/02 10:13:39;;;;;;;4.20;3.80;;;9.70;99.90;;;11.23;98.89;96574.16;5208869;28;20228;-60
2021/11/02 10:16:45;;;;;;;5.82;3.60;;;9.70;99.90;;;10.98;98.07;96577.56;5202566;28;20205;-60
2021/11/02 10:19:53;;;;;;;4.07;3.65;;;9.60;99.90;;;10.75;99.72;96574.22;5187696;28;20196;-59
2021/11/02 10:23:11;;;;;;;3.65;3.35;;;9.40;99.90;;;10.59;100.00;96577.94;5197477;28;20234;-63
2021/11/02 10:26:25;;;;;;;5.63;3.65;;;9.40;99.90;;;10.56;100.00;96579.50;5202176;28;20324;-62
2021/11/02 10:30:05;;;;;;;4.55;3.10;;;9.30;99.90;;;10.52;100.00;96580.19;5198465;28;20218;-62
2021/11/02 10:32:43;;;;;;;5.63;3.80;;;9.20;99.90;;;10.44;100.00;96572.25;5167971;28;20276;-62
2021/11/02 10:35:21;;;;;;;5.90;3.78;;;9.30;99.90;;;10.41;100.00;96573.81;5203914;28;20292;-62
2021/11/02 10:38:09;;;;;;;5.03;3.60;;;9.20;99.90;;;10.41;100.00;96572.13;5201893;28;20193;-62
2021/11/02 10:40:55;;;;;;;4.85;3.40;;;9.20;99.90;;;10.35;100.00;96565.13;5198214;28;20317;-62
2021/11/02 10:44:06;;;;;;;3.70;3.40;;;9.20;99.90;;;10.31;100.00;96570.94;5185971;28;20253;-62
2021/11/02 10:46:57;;;;;;;4.68;3.80;;;9.20;99.90;;;10.32;100.00;96571.81;5197529;28;20282;-62
2021/11/02 10:49:55;;;;;;;8.70;4.70;;;9.20;99.90;;;10.33;100.00;96564.22;5202156;28;20256;-64
2021/11/02 10:52:31;;;;;;;6.03;5.40;;;9.20;99.90;;;10.35;100.00;96561.69;5202103;28;20218;-62
2021/11/02 10:55:25;;;;;;;6.75;6.05;;;9.20;99.90;;;10.43;100.00;96564.53;5198882;28;20649;-62
2021/11/02 10:58:27;;;;;;;5.55;4.60;;;9.30;99.90;;;10.48;100.00;96557.94;5201720;28;20198;-63
2021/11/02 11:01:05;;;;;;;6.45;4.80;;;9.40;99.90;;;10.53;100.00;96561.50;5200142;28;20194;-63
2021/11/02 11:03:41;;;;;;;4.80;4.32;;;9.40;99.90;;;10.54;100.00;96568.34;5201803;28;20608;-63
2021/11/02 11:06:16;;;;;;;5.75;5.07;;;9.40;99.90;;;10.53;100.00;96566.59;5202864;28;20293;-62
2021/11/02 11:08:49;;;;;;;13.40;9.75;;;9.40;99.90;;;10.52;100.00;96559.75;5199874;28;20218;-62
2021/11/02 11:11:26;;;;;;;14.45;10.13;;;9.40;99.90;;;10.48;100.00;96557.94;5198485;28;20297;-63
2021/11/02 11:14:09;;;;;;;13.93;10.63;;;9.50;99.90;;;10.49;100.00;96559.66;5198974;28;20233;-64
2021/11/02 11:16:48;;;;;;;7.38;6.07;;;9.40;99.90;;;10.50;100.00;96562.28;5203548;28;20285;-63
2021/11/02 11:19:28;;;;;;;7.15;5.97;;;9.30;99.90;;;10.45;100.00;96555.25;5202315;28;20707;-62
2021/11/02 11:22:03;;;;;;;6.50;5.13;;;9.40;99.90;;;10.42;100.00;96552.59;5198607;28;20225;-62
2021/11/02 11:24:49;;;;;;;12.73;9.65;;;9.30;99.90;;;10.35;100.00;96561.69;5201043;28;20213;-63
2021/11/02 11:27:27;;;;;;;8.50;7.63;;;9.30;99.90;;;10.20;100.00;96554.31;5201412;28;20655;-63
2021/11/02 11:30:06;;;;;;;7.55;6.80;;;9.20;99.90;;;10.25;100.00;96554.50;5202667;28;20320;-61
2021/11/02 11:32:39;;;;;;;6.90;5.35;;;9.30;99.90;;;10.24;100.00;96558.72;5202634;28;20216;-63
2021/11/02 11:35:13;;;;;;;6.35;5.43;;;9.20;99.90;;;10.27;100.00;96541.00;5202009;28;20281;-63
2021/11/02 11:37:50;;;;;;;5.88;4.85;;;9.30;99.90;;;10.25;100.00;96545.16;5201499;28;20208;-63
2021/11/02 11:40:25;;;;;;;5.55;5.03;;;9.30;99.90;;;10.28;100.00;96549.53;5196599;28;20225;-63
2021/11/02 11:42:59;;;;;;;4.80;4.30;;;9.30;99.90;;;10.31;100.00;96540.28;5199260;28;20287;-63
2021/11/02 11:45:36;;;;;;;5.40;4.07;;;9.20;99.90;;;10.34;100.00;96542.97;5201118;28;20225;-61
2021/11/02 11:48:11;;;;;;;4.30;3.90;;;9.20;99.90;;;10.33;100.00;96541.22;5201559;28;20209;-64
2021/11/02 11:50:45;;;;;;;4.45;4.10;;;9.20;99.90;;;10.28;100.00;96544.44;5198978;28;20296;-64
2021/11/02 11:53:22;;;;;;;4.45;4.15;;;9.20;99.90;;;10.31;100.00;96544.53;5198273;28;20227;-64
2021/11/02 11:56:06;;;;;;;4.28;3.97;;;9.30;99.90;;;10.36;100.00;96546.44;5201803;28;20197;-62
2021/11/02 11:58:50;;;;;;;4.93;4.10;;;9.30;99.90;;;10.38;100.00;96536.25;5205058;28;20288;-63
2021/11/02 12:01:33;;;;;;;4.70;4.07;;;9.30;99.90;;;10.41;100.00;96540.63;5205301;28;20202;-64
2021/11/02 12:04:14;;;;;;;4.80;4.28;;;9.30;99.90;;;10.41;100.00;96535.50;5204755;28;20293;-64
2021/11/02 12:06:55;;;;;;;4.82;3.80;;;9.30;99.90;;;10.41;100.00;96533.81;5206255;28;20645;-62
2021/11/02 12:09:40;;;;;;;4.13;3.83;;;9.30;99.90;;;10.38;100.00;96520.94;5201995;28;20733;-61
2021/11/02 12:12:15;;;;;;;4.80;4.15;;;9.20;99.90;;;10.42;100.00;96527.06;5204975;28;20240;-64
2021/11/02 12:14:54;;;;;;;4.20;3.90;;;9.40;99.90;;;10.42;100.00;96522.81;5206593;28;20193;-64
2021/11/02 12:17:31;;;;;;;4.95;4.45;;;9.30;99.90;;;10.47;100.00;96520.41;5204425;28;20297;-63
2021/11/02 12:20:11;;;;;;;4.82;4.35;;;9.40;99.90;;;10.45;100.00;96522.06;5206271;28;20200;-63
2021/11/02 12:22:51;;;;;;;4.20;3.80;;;9.50;99.90;;;10.60;100.00;96517.47;5205696;28;20220;-64
2021/11/02 12:25:34;;;;;;;4.40;4.07;;;9.40;99.90;;;10.63;100.00;96517.59;5205599;28;20202;-63
2021/11/02 12:28:24;;;;;;;4.03;3.72;;;9.40;99.90;;;10.81;100.00;96515.66;5205183;28;20193;-63
2021/11/02 12:31:02;;;;;;;3.40;3.10;;;9.60;99.90;;;10.83;100.00;96518.25;5200181;28;20194;-63
2021/11/02 12:33:37;;;;;;;4.13;3.03;;;9.60;99.90;;;11.00;100.00;96523.94;5206684;28;20256;-63
2021/11/02 12:36:19;;;;;;;2.90;2.70;;;9.80;99.90;;;11.15;100.00;96519.34;5206544;28;20413;-62
2021/11/02 12:39:01;;;;;;;3.55;2.90;;;9.90;99.90;;;11.38;100.00;96514.97;5197678;28;20212;-60
2021/11/02 12:41:36;;;;;;;2.78;2.60;;;10.10;99.90;;;11.53;100.00;96522.25;5203348;28;20221;-61
2021/11/02 12:44:15;;;;;;;2.85;2.28;;;10.20;99.90;;;11.61;92.60;96514.81;5201492;28;20252;-62
2021/11/02 12:46:49;;;;;;;2.28;2.17;;;10.10;99.90;;;11.59;96.25;96517.34;5205459;28;20245;-61
2021/11/02 12:49:33;;;;;;;2.15;1.92;;;10.20;99.90;;;11.60;94.17;96507.97;5206693;28;20771;-62
2021/11/02 12:52:09;;;;;;;2.15;2.03;;;10.10;99.90;;;11.55;95.29;96506.97;5205776;28;20308;-60
2021/11/02 12:54:43;;;;;;;2.35;2.05;;;10.20;99.90;;;11.53;93.60;96514.56;5206187;28;20674;-64
2021/11/02 12:57:20;;;;;;;1.92;1.83;;;10.20;99.90;;;11.54;91.72;96516.34;5205430;28;20565;-63
2021/11/02 13:00:01;;;;;;;2.35;1.77;;;10.30;99.90;;;11.49;92.45;96515.31;5205148;28;20277;-63
2021/11/02 13:02:37;;;;;;;1.60;1.50;;;10.10;99.90;;;11.37;91.50;96512.38;5201178;28;20318;-63
2021/11/02 13:05:18;;;;;;;1.95;1.85;;;10.00;99.90;;;11.39;92.66;96513.28;5205010;28;20268;-62
2021/11/02 13:08:07;;;;;;;1.73;1.73;;;10.10;99.90;;;11.34;92.20;96522.50;5200045;28;20298;-63
2021/11/02 13:10:44;;;;;;;1.50;1.40;;;10.10;99.90;;;11.14;90.74;96521.88;5200387;28;20453;-63
2021/11/02 13:13:23;;;;;;;1.23;1.23;;;9.90;99.90;;;11.11;91.81;96517.50;5205157;28;20641;-61
2021/11/02 13:15:58;;;;;;;1.70;1.60;;;9.90;99.90;;;10.91;91.30;96513.44;5206261;28;20289;-59
2021/11/02 13:18:33;;;;;;;1.75;1.65;;;9.80;99.90;;;10.96;92.04;96522.09;5204092;28;20304;-63
2021/11/02 13:21:24;;;;;;;2.00;1.90;;;9.80;99.90;;;10.95;93.49;96520.38;5204751;28;20634;-64
2021/11/02 13:24:04;;;;;;;1.73;1.63;;;9.60;99.90;;;10.79;94.49;96524.97;5203495;28;20208;-63
2021/11/02 13:26:41;;;;;;;1.67;1.45;;;9.60;99.90;;;10.91;94.81;96523.66;5204618;28;20729;-64
2021/11/02 13:29:18;;;;;;;1.77;1.67;;;9.60;99.90;;;10.88;95.61;96518.44;5205778;28;20197;-64
2021/11/02 13:31:53;;;;;;;1.98;1.67;;;9.60;99.90;;;10.91;97.13;96524.50;5202129;28;20231;-64
2021/11/02 13:34:37;;;;;;;2.45;1.60;;;9.70;99.90;;;11.05;94.77;96519.88;5204104;28;20207;-62
2021/11/02 13:37:14;;;;;;;1.60;1.40;;;9.70;99.90;;;11.14;93.46;96517.63;5200939;28;20619;-63
2021/11/02 13:39:56;;;;;;;1.65;1.55;;;9.80;99.90;;;11.22;91.92;96520.44;5204263;28;20205;-64
2021/11/02 13:42:53;;;;;;;1.73;1.63;;;9.80;99.90;;;11.41;90.60;96517.63;5201939;28;20567;-63
2021/11/02 13:45:27;;;;;;;1.67;1.58;;;10.00;99.90;;;11.55;89.25;96519.75;5186566;28;20300;-62
2021/11/02 13:48:04;;;;;;;1.50;1.50;;;10.20;99.90;;;11.55;86.11;96517.19;5204279;28;20236;-64
2021/11/02 13:50:38;;;;;;;1.50;1.50;;;10.30;99.90;;;11.59;86.95;96512.25;5205036;28;20225;-65
2021/11/02 13:53:11;;;;;;;1.52;1.52;;;10.30;99.90;;;11.52;85.46;96520.53;5197661;28;20221;-65
2021/11/02 13:55:45;;;;;;;2.15;1.70;;;10.40;99.90;;;11.49;87.04;96525.56;5204403;28;20198;-63
2021/11/02 13:58:19;;;;;;;1.50;1.50;;;10.30;99.90;;;11.31;85.69;96515.59;5200715;28;20201;-63
2021/11/02 14:00:53;;;;;;;1.50;1.50;;;10.30;99.90;;;11.34;87.22;96530.19;5199558;28;20323;-62
2021/11/02 14:03:32;;;;;;;1.80;1.70;;;10.30;99.90;;;11.20;86.70;96520.38;5201953;28;20233;-62
2021/11/02 14:06:10;;;;;;;1.60;1.60;;;10.20;99.90;;;11.22;90.57;96516.19;5203236;28;20289;-60
2021/11/02 14:08:45;;;;;;;1.58;1.58;;;10.10;99.90;;;11.13;91.02;96520.09;5202797;28;20753;-61
2021/11/02 14:11:24;;;;;;;1.73;1.63;;;10.10;99.90;;;11.11;90.62;96522.63;5198441;28;20221;-63
2021/11/02 14:13:57;;;;;;;1.98;1.77;;;9.90;99.90;;;10.98;91.61;96516.22;5199889;28;20293;-62
2021/11/02 14:16:38;;;;;;;1.90;1.70;;;9.80;99.90;;;10.96;90.19;96527.22;5202687;28;20205;-63
2021/11/02 14:19:39;;;;;;;1.70;1.60;;;9.80;99.90;;;11.01;85.45;96533.34;5198641;28;20217;-62
2021/11/02 14:22:13;;;;;;;1.42;1.42;;;9.70;99.90;;;10.87;84.05;96537.13;5202167;28;20668;-62
2021/11/02 14:24:48;;;;;;;1.55;1.50;;;9.70;99.90;;;10.79;85.62;96545.41;5198329;28;20197;-60
2021/11/02 14:27:23;;;;;;;2.15;1.70;;;9.70;99.90;;;10.72;86.27;96543.44;5202216;28;20369;-61
2021/11/02 14:29:57;;;;;;;2.13;2.00;;;9.70;99.90;;;10.57;85.87;96548.88;5203225;28;20329;-57
2021/11/02 14:32:53;;;;;;;1.60;1.60;;;9.60;99.90;;;10.54;84.95;96543.69;5202763;28;20218;-62
2021/11/02 14:35:48;;;;;;;1.40;1.40;;;9.50;99.90;;;10.47;87.33;96554.50;5193877;28;20688;-62
2021/11/02 14:38:26;;;;;;;1.60;1.50;;;9.40;99.90;;;10.42;88.72;96558.56;5197770;28;20296;-61
2021/11/02 14:41:31;;;;;;;1.60;1.50;;;9.30;99.90;;;10.36;88.65;96556.66;5200597;28;20202;-60
2021/11/02 14:44:26;;;;;;;1.65;1.55;;;9.20;99.90;;;10.34;89.57;96560.84;5199345;28;20194;-62
2021/11/02 14:47:02;;;;;;;1.33;1.33;;;9.20;99.90;;;10.17;87.85;96551.66;5189201;28;20198;-63
2021/11/02 14:49:44;;;;;;;1.50;1.50;;;9.10;99.90;;;10.24;87.25;96550.19;5204575;28;20629;-62
2021/11/02 14:52:26;;;;;;;1.70;1.60;;;9.20;99.90;;;10.05;88.83;96536.75;5202938;28;20308;-60
2021/11/02 14:54:59;;;;;;;1.75;1.70;;;9.10;99.90;;;10.06;90.70;96552.94;5203938;28;20281;-63
2021/11/02 14:57:54;;;;;;;1.60;1.50;;;9.00;99.90;;;10.04;91.92;96555.41;5203205;28;20202;-59
2021/11/02 15:00:42;;;;;;;1.55;1.45;;;9.00;99.90;;;10.02;90.54;96562.16;5200687;28;20202;-58
2021/11/02 15:03:22;;;;;;;1.10;1.10;;;9.00;99.90;;;10.02;90.96;96568.97;5202627;28;20225;-63
2021/11/02 15:06:03;;;;;;;1.25;1.25;;;9.00;99.90;;;10.09;90.36;96563.25;5201252;28;20241;-63
2021/11/02 15:08:41;;;;;;;1.52;1.42;;;9.00;99.90;;;10.08;89.64;96567.50;5195840;28;20456;-64
2021/11/02 15:11:19;;;;;;;1.45;1.35;;;9.00;99.90;;;10.09;88.52;96563.25;5199247;28;20230;-64
2021/11/02 15:13:55;;;;;;;1.60;1.50;;;9.00;99.90;;;10.04;89.37;96569.84;5201175;28;20208;-61
2021/11/02 15:16:28;;;;;;;1.45;1.45;;;9.00;99.90;;;9.86;89.71;96570.91;5201988;28;20297;-62
2021/11/02 15:19:05;;;;;;;2.00;1.90;;;8.90;99.90;;;9.83;89.46;96580.13;5201361;28;20209;-62
2021/11/02 15:21:43;;;;;;;1.67;1.58;;;8.80;99.90;;;9.83;90.80;96581.00;5199182;28;20312;-62
2021/11/02 15:24:22;;;;;;;1.80;1.70;;;8.70;99.90;;;9.72;92.85;96586.47;5197346;28;20201;-61
2021/11/02 15:27:00;;;;;;;4.88;4.47;;;8.70;99.90;;;9.70;93.56;96584.75;5196527;28;20636;-63
2021/11/02 15:29:36;;;;;;;6.20;5.60;;;8.60;99.90;;;9.68;93.50;96575.28;5201410;28;20730;-63
2021/11/02 15:32:11;;;;;;;2.88;2.58;;;8.60;99.90;;;9.62;93.91;96580.16;5200812;28;20328;-62
2021/11/02 15:34:48;;;;;;;2.88;2.67;;;8.60;99.90;;;9.67;94.34;96573.53;5195025;28;20284;-63
2021/11/02 15:37:26;;;;;;;6.75;6.07;;;8.60;99.90;;;9.70;93.72;96578.78;5198735;28;20296;-60
2021/11/02 15:40:02;;;;;;;5.85;5.38;;;8.60;99.90;;;9.56;94.49;96568.03;5200253;28;20220;-62